createdAt,value
2022-11-16T00:04:13.570Z,99406.06
2022-11-16T00:09:26.919Z,99404.75
2022-11-16T00:14:28.626Z,99403.72
2022-11-16T00:19:28.406Z,99394.25
2022-11-16T00:24:27.389Z,99396.13
2022-11-16T00:29:27.223Z,99387.84
2022-11-16T00:34:26.101Z,99393.22
2022-11-16T00:39:24.973Z,99383.41
2022-11-16T00:44:23.672Z,99370.56
2022-11-16T00:49:22.833Z,99374.88
2022-11-16T00:54:22.297Z,99364.47
2022-11-16T00:59:21.922Z,99365.69
2022-11-16T01:04:20.781Z,99356.78
2022-11-16T01:09:19.732Z,99347.22
2022-11-16T01:14:19.759Z,99345.13
2022-11-16T01:19:18.712Z,99337.16
2022-11-16T01:24:17.530Z,99327.84
2022-11-16T01:29:16.655Z,99329.09
2022-11-16T01:34:22.916Z,99326.31
2022-11-16T01:39:23.683Z,99318.25
2022-11-16T01:44:33.197Z,99306.34
2022-11-16T01:49:46.531Z,99304.34
2022-11-16T01:54:49.881Z,99294.19
2022-11-16T01:59:52.832Z,99280.75
2022-11-16T02:04:55.697Z,99275.50
2022-11-16T02:10:40.609Z,99280.84
2022-11-16T02:15:45.147Z,99275.38
2022-11-16T02:21:01.290Z,99271.50
2022-11-16T02:26:18.857Z,99274.19
2022-11-16T02:31:24.652Z,99268.16
2022-11-16T02:36:25.639Z,99253.53
2022-11-16T02:41:28.547Z,99251.91
2022-11-16T02:46:35.837Z,99231.47
2022-11-16T02:51:39.989Z,99220.00
2022-11-16T02:57:03.081Z,99212.59
2022-11-16T03:02:22.650Z,99208.66
2022-11-16T03:07:27.382Z,99214.63
2022-11-16T03:12:31.875Z,99206.63
2022-11-16T03:17:39.385Z,99201.59
2022-11-16T03:22:49.148Z,99207.97
2022-11-16T03:28:21.852Z,99208.78
2022-11-16T03:33:30.678Z,99210.91
2022-11-16T03:38:31.670Z,99210.91
2022-11-16T03:43:33.478Z,99208.13
2022-11-16T03:48:39.270Z,99205.69
2022-11-16T03:53:46.974Z,99203.88
2022-11-16T03:58:46.253Z,99192.47
2022-11-16T04:03:45.167Z,99192.38
2022-11-16T04:09:03.136Z,99196.13
2022-11-16T04:14:20.598Z,99188.84
2022-11-16T04:19:38.120Z,99191.78
2022-11-16T04:24:40.287Z,99198.16
2022-11-16T04:29:40.106Z,99197.97
2022-11-16T04:34:57.865Z,99182.34
2022-11-16T04:39:57.488Z,99182.50
2022-11-16T04:45:15.152Z,99189.75
2022-11-16T04:50:20.996Z,99170.19
2022-11-16T04:55:21.818Z,99166.56
2022-11-16T05:00:23.217Z,99169.97
2022-11-16T05:05:23.260Z,99168.16
2022-11-16T05:10:23.467Z,99177.41
2022-11-16T05:15:24.343Z,99187.53
2022-11-16T05:20:41.754Z,99183.69
2022-11-16T05:25:41.321Z,99187.41
2022-11-16T05:30:45.871Z,99196.78
2022-11-16T05:35:52.414Z,99194.88
2022-11-16T05:40:53.234Z,99200.06
2022-11-16T05:45:52.829Z,99183.13
2022-11-16T05:50:58.436Z,99184.72
2022-11-16T05:55:58.403Z,99186.88
2022-11-16T06:00:58.333Z,99194.66
2022-11-16T06:05:58.123Z,99198.25
2022-11-16T06:11:04.107Z,99193.63
2022-11-16T06:16:04.219Z,99197.38
2022-11-16T06:21:05.498Z,99200.47
2022-11-16T06:26:05.500Z,99207.66
2022-11-16T06:31:04.693Z,99205.47
2022-11-16T06:36:08.416Z,99199.13
2022-11-16T06:41:08.551Z,99205.94
2022-11-16T06:46:13.094Z,99202.34
2022-11-16T06:51:12.420Z,99196.78
2022-11-16T06:56:13.518Z,99194.31
2022-11-16T07:01:18.185Z,99180.28
2022-11-16T07:06:19.476Z,99196.63
2022-11-16T07:11:20.241Z,99202.34
2022-11-16T07:16:19.534Z,99202.94
2022-11-16T07:21:25.556Z,99191.75
2022-11-16T07:26:26.968Z,99203.09
2022-11-16T07:31:31.114Z,99204.63
2022-11-16T07:36:49.058Z,99201.88
2022-11-16T07:41:53.092Z,99203.56
2022-11-16T07:47:01.826Z,99185.84
2022-11-16T07:52:03.657Z,99187.94
2022-11-16T07:57:21.340Z,99182.59
2022-11-16T08:02:20.835Z,99171.13
2022-11-16T08:07:22.324Z,99175.94
2022-11-16T08:12:25.618Z,99162.66
2022-11-16T08:17:25.750Z,99166.47
2022-11-16T08:22:25.531Z,99166.25
2022-11-16T08:27:25.028Z,99161.56
2022-11-16T08:32:29.848Z,99151.97
2022-11-16T08:37:29.313Z,99154.03
2022-11-16T08:42:29.300Z,99147.66
2022-11-16T08:47:28.213Z,99154.94
2022-11-16T08:52:30.290Z,99150.91
2022-11-16T08:57:30.430Z,99150.97
2022-11-16T09:02:31.822Z,99149.50
2022-11-16T09:07:31.057Z,99140.69
2022-11-16T09:12:29.912Z,99152.91
2022-11-16T09:17:28.837Z,99157.38
2022-11-16T09:22:27.585Z,99163.06
2022-11-16T09:27:27.224Z,99150.81
2022-11-16T09:32:26.007Z,99151.38
2022-11-16T09:37:24.857Z,99150.28
2022-11-16T09:43:12.107Z,99151.50
2022-11-16T09:48:14.731Z,99147.06
2022-11-16T09:53:49.189Z,99144.75
2022-11-16T09:58:54.074Z,99142.34
2022-11-16T10:04:02.916Z,99129.28
2022-11-16T10:09:02.105Z,99127.44
2022-11-16T10:14:12.949Z,99125.72
2022-11-16T10:19:42.848Z,99121.19
2022-11-16T10:24:58.366Z,99111.13
2022-11-16T10:30:14.810Z,99106.91
2022-11-16T10:35:22.983Z,99095.56
2022-11-16T10:40:23.709Z,99094.47
2022-11-16T10:45:33.359Z,99088.63
2022-11-16T10:50:38.093Z,99073.06
2022-11-16T10:55:36.931Z,99070.19
2022-11-16T11:00:51.825Z,99062.72
2022-11-16T11:05:53.456Z,99062.06
2022-11-16T11:11:24.128Z,99062.50
2022-11-16T11:16:22.978Z,99062.47
2022-11-16T11:21:25.921Z,99062.91
2022-11-16T11:26:35.876Z,99056.53
2022-11-16T11:31:44.221Z,99051.38
2022-11-16T11:36:52.411Z,99056.25
2022-11-16T11:42:21.526Z,99058.13
2022-11-16T11:48:02.954Z,99055.72
2022-11-16T11:53:18.126Z,99051.91
2022-11-16T11:58:19.780Z,99048.16
2022-11-16T12:03:43.250Z,99051.66
2022-11-16T12:09:16.359Z,99040.31
2022-11-16T12:14:18.243Z,99046.28
2022-11-16T12:19:19.933Z,99046.53
2022-11-16T12:24:34.053Z,99047.88
2022-11-16T12:29:54.476Z,99042.75
2022-11-16T12:34:53.535Z,99038.94
2022-11-16T12:40:18.293Z,99044.66
2022-11-16T12:45:32.740Z,99048.91
2022-11-16T12:50:59.622Z,99040.25
2022-11-16T12:56:37.756Z,99029.75
2022-11-16T13:02:00.177Z,99030.03
2022-11-16T13:07:18.803Z,99031.66
2022-11-16T13:12:23.430Z,99023.78
2022-11-16T13:17:27.231Z,99028.66
2022-11-16T13:22:28.316Z,99026.50
2022-11-16T13:27:44.398Z,99033.00
2022-11-16T13:33:11.278Z,99035.16
2022-11-16T13:38:13.524Z,99030.00
2022-11-16T13:43:12.834Z,99033.53
2022-11-16T13:48:34.471Z,99035.38
2022-11-16T13:54:37.779Z,99028.06
2022-11-16T13:58:58.549Z,99027.53
2022-11-16T14:04:39.728Z,99032.59
2022-11-16T14:09:43.610Z,99027.69
2022-11-16T14:15:14.312Z,99029.81
2022-11-16T14:20:17.110Z,99022.53
2022-11-16T14:25:48.796Z,99019.47
2022-11-16T14:30:53.081Z,99008.16
2022-11-16T14:35:53.827Z,99009.78
2022-11-16T14:40:59.136Z,99013.81
2022-11-16T14:46:03.496Z,99008.66
2022-11-16T14:51:14.808Z,99007.22
2022-11-16T14:56:16.400Z,99004.59
2022-11-16T15:01:17.857Z,99012.97
2022-11-16T15:06:16.880Z,99006.72
2022-11-16T15:11:54.673Z,99008.88
2022-11-16T15:16:56.205Z,99004.66
2022-11-16T15:22:01.502Z,98993.28
2022-11-16T15:27:28.971Z,98995.66
2022-11-16T15:32:27.977Z,98987.66
2022-11-16T15:37:28.918Z,98989.63
2022-11-16T15:42:28.770Z,98991.25
2022-11-16T15:47:27.844Z,98993.34
2022-11-16T15:52:51.002Z,98993.94
2022-11-16T15:58:04.126Z,98994.09
2022-11-16T16:03:24.996Z,98996.88
2022-11-16T16:08:30.582Z,98991.53
2022-11-16T16:13:33.203Z,98990.84
2022-11-16T16:18:41.430Z,98988.44
2022-11-16T16:23:48.595Z,98988.09
2022-11-16T16:28:47.637Z,98984.97
2022-11-16T16:33:46.989Z,98988.38
2022-11-16T16:38:45.840Z,98993.03
2022-11-16T16:43:44.599Z,98990.34
2022-11-16T16:48:44.805Z,98984.69
2022-11-16T16:53:43.694Z,98985.34
2022-11-16T16:58:42.714Z,98991.63
2022-11-16T17:03:41.762Z,98986.25
2022-11-16T17:08:40.742Z,98983.75
2022-11-16T17:13:39.516Z,98983.34
2022-11-16T17:18:38.513Z,98988.19
2022-11-16T17:23:37.617Z,98983.50
2022-11-16T17:28:37.021Z,98989.88
2022-11-16T17:33:37.521Z,98985.00
2022-11-16T17:38:36.896Z,98984.69
2022-11-16T17:43:36.234Z,98976.31
2022-11-16T17:48:36.546Z,98985.50
2022-11-16T17:53:36.644Z,98983.25
2022-11-16T17:58:35.605Z,98983.22
2022-11-16T18:03:38.943Z,98987.38
2022-11-16T18:08:37.871Z,98985.63
2022-11-16T18:13:37.468Z,98991.72
2022-11-16T18:18:37.843Z,98991.88
2022-11-16T18:23:37.816Z,98989.16
2022-11-16T18:28:37.259Z,98993.31
2022-11-16T18:33:37.573Z,98988.69
2022-11-16T18:38:37.579Z,98994.22
2022-11-16T18:43:36.702Z,98987.16
2022-11-16T18:48:35.823Z,98988.22
2022-11-16T18:53:34.816Z,98986.00
2022-11-16T18:58:51.336Z,98989.69
2022-11-16T19:03:53.076Z,98979.97
2022-11-16T19:08:59.213Z,98974.09
2022-11-16T19:14:07.556Z,98978.31
2022-11-16T19:19:06.560Z,98976.59
2022-11-16T19:24:06.773Z,98975.16
2022-11-16T19:29:05.660Z,98978.00
2022-11-16T19:34:11.618Z,98979.31
2022-11-16T19:39:10.517Z,98981.00
2022-11-16T19:44:09.252Z,98983.72
2022-11-16T19:49:10.208Z,98975.28
2022-11-16T19:54:10.856Z,98975.66
2022-11-16T19:59:09.903Z,98982.78
2022-11-16T20:04:09.334Z,98985.78
2022-11-16T20:09:11.957Z,98981.47
2022-11-16T20:14:12.081Z,98975.00
2022-11-16T20:19:11.159Z,98970.56
2022-11-16T20:24:13.611Z,98970.97
2022-11-16T20:29:14.479Z,98969.75
2022-11-16T20:34:15.683Z,98963.91
2022-11-16T20:39:16.213Z,98955.03
2022-11-16T20:44:22.355Z,98949.25
2022-11-16T20:49:21.454Z,98965.25
2022-11-16T20:54:20.354Z,98969.50
2022-11-16T20:59:19.436Z,98964.19
2022-11-16T21:04:18.196Z,98970.38
2022-11-16T21:09:22.633Z,98969.72
2022-11-16T21:14:22.976Z,98970.31
2022-11-16T21:19:21.790Z,98972.78
2022-11-16T21:24:21.954Z,98961.72
2022-11-16T21:29:25.872Z,98972.63
2022-11-16T21:34:27.811Z,98986.72
2022-11-16T21:39:27.344Z,98990.47
2022-11-16T21:44:26.115Z,98987.66
2022-11-16T21:49:25.042Z,98997.09
2022-11-16T21:54:43.763Z,98991.72
2022-11-16T21:59:43.169Z,98986.25
2022-11-16T22:05:00.573Z,98975.81
2022-11-16T22:10:08.595Z,98983.09
2022-11-16T22:15:07.955Z,98988.06
2022-11-16T22:20:07.302Z,98998.34
2022-11-16T22:25:06.693Z,98996.81
2022-11-16T22:30:06.960Z,98995.91
2022-11-16T22:35:06.059Z,98992.97
2022-11-16T22:40:05.685Z,98985.88
2022-11-16T22:45:05.239Z,98991.19
2022-11-16T22:50:04.322Z,98991.66
2022-11-16T22:55:03.268Z,98980.34
2022-11-16T23:00:02.183Z,98975.75
2022-11-16T23:05:00.937Z,98970.13
2022-11-16T23:09:59.886Z,98973.44
2022-11-16T23:15:17.464Z,98968.88
2022-11-16T23:20:34.874Z,98969.81
2022-11-16T23:25:52.802Z,98958.25
2022-11-16T23:30:51.715Z,98957.38
2022-11-16T23:35:50.474Z,98960.47
2022-11-16T23:40:49.310Z,98959.16
2022-11-16T23:45:49.417Z,98954.44
2022-11-16T23:50:48.312Z,98960.75
2022-11-16T23:55:47.642Z,98950.75
